Metar Cercanos

 

LEPA - Palma De Mallorc, Spain
Distance from station: ONO 38km
Actualización: 24/10/2018 01:00
Despejado
Despejado
 Viento del NE
Viento: NE 4 km/h
Temperatura: 12°C
Rocío: 11°C
Humedad: 94%
Barómetro: 1024 hPa
Resumen: Despejado
Visibility: greater than 10 km
2018/10/23 23:00 LEPA 232300Z 05002KT CAVOK 12/11 Q1024 NOSIG
LEMH - Mahon/Menorca Is, Spain
Distance from station: ENE 105km
Actualización: 24/10/2018 01:00
Despejado
Despejado
 Viento del NO
Viento: NO 9 km/h
Temperatura: 16°C
Rocío: 12°C
Humedad: 77%
Barómetro: 1023 hPa
Clouds: Despejado
Visibility: 10 km
2018/10/23 23:00 LEMH 232300Z AUTO 32005KT 290V350 9999 NCD 16/12 Q1023
 
LEIB - Ibiza/Es Codola, Spain
Distance from station: OSO 165km
Actualización: 24/10/2018 01:00
Despejado
Despejado
 Viento del varies
Viento: varies 2 km/h
Temperatura: 15°C
Rocío: 13°C
Humedad: 88%
Barómetro: 1025 hPa
Resumen: Despejado
Visibility: greater than 10 km
2018/10/23 23:00 LEIB 232300Z VRB01KT CAVOK 15/13 Q1025 NOSIG
LEBL - Barcelona Airpor, Spain
Distance from station: NNO 225km
Actualización: 24/10/2018 01:00
Despejado
Despejado
 Viento del NO
Viento: NO 19 km/h
Temperatura: 16°C
Rocío: 11°C
Humedad: 72%
Barómetro: 1024 hPa
Resumen: Despejado
Visibility: greater than 10 km
2018/10/23 23:00 LEBL 232300Z 32010KT CAVOK 16/11 Q1024 NOSIG
 
LEVC - Valencia (civ/Mi, Spain
Distance from station: NO 188km
Actualización: 24/10/2018 01:00
Muy nuboso
Muy nuboso
 Viento del O
Viento: O 6 km/h
Temperatura: 19°C
Rocío: 17°C
Humedad: 88%
Barómetro: 1025 hPa
Clouds: Muy nuboso
Visibility: 10 km
Cloud details: Few Clouds 610 m
Muy nuboso 914 m
2018/10/23 23:00 LEVC 232300Z 27003KT 9999 FEW020 BKN030 19/17 Q1025 NOSIG
LEGE - Gerona/Costa Bra, Spain
Distance from station: N 276km
Actualización: 24/10/2018 01:00
Few Clouds
Few Clouds
 Viento del varies
Viento: varies 4 km/h
Temperatura: 10°C
Rocío: 10°C
Humedad: 100%
Barómetro: 1023 hPa
Clouds: Few Clouds
Visibility: 10 km
Cloud details: Few Clouds 1524 m
2018/10/23 23:00 LEGE 232300Z VRB02KT 9999 FEW050 10/10 Q1023
 
LEAL - Alicante/El Alte, Spain
Distance from station: OSO 344km
Actualización: 24/10/2018 01:00
Few Clouds
Few Clouds
 Viento del NO
Viento: NO 7 km/h
Temperatura: 17°C
Rocío: 14°C
Humedad: 83%
Barómetro: 1026 hPa
Clouds: Few Clouds
Visibility: 10 km
Cloud details: Few Clouds 853 m
2018/10/23 23:00 LEAL 232300Z 31004KT 9999 FEW028 17/14 Q1026 NOSIG
LEAM - Almeria Airport, Spain
Distance from station: SSO 56km
Actualización: 24/10/2018 01:00
Despejado
Despejado
 Viento del N
Viento: N 7 km/h
Temperatura: 18°C
Rocío: 15°C
Humedad: 83%
Barómetro: 1025 hPa
Clouds: Despejado
Visibility: 10 km
2018/10/23 23:00 LEAM 232300Z AUTO 36004KT 9999 NCD 18/15 Q1025
 
LEZG - Zaragoza (mil/Ci, Spain
Distance from station: NO 431km
Actualización: 24/10/2018 01:00
Despejado
Despejado
 Viento del O
Viento: O 22 km/h
Temperatura: 14°C
Rocío: 8°C
Humedad: 67%
Barómetro: 1027 hPa
Resumen: Despejado
Visibility: greater than 10 km
2018/10/23 23:00 LEZG 232300Z 28012KT CAVOK 14/08 Q1027
LEMD - Madrid/Barajas, Spain
Distance from station: ONO 234km
Actualización: 24/10/2018 01:00
Despejado
Despejado
 Viento del N
Viento: N 7 km/h
Temperatura: 13°C
Rocío: 12°C
Humedad: 94%
Barómetro: 1027 hPa
Resumen: Despejado
Visibility: greater than 10 km
2018/10/23 23:00 LEMD 232300Z 01004KT CAVOK 13/12 Q1027 NOSIG
 
LEGR - Granada Airport, Spain
Distance from station: OSO 62km
Actualización: 24/10/2018 01:00
Despejado
Despejado
 Viento del calm
Viento: Calma
Temperatura: 13°C
Rocío: 12°C
Humedad: 94%
Barómetro: 1027 hPa
Clouds: Despejado
Visibility: 10 km
2018/10/23 23:00 LEGR 232300Z AUTO 00000KT 9999 NCD 13/12 Q1027
LEMG - Malaga (civ/Mil), Spain
Distance from station: OSO 227km
Actualización: 24/10/2018 01:00
Muy nuboso
Muy nuboso
 Viento del calm
Viento: Calma
Temperatura: 20°C
Rocío: 18°C
Humedad: 88%
Barómetro: 1026 hPa
Clouds: Muy nuboso
Visibility: 10 km
Cloud details: Parcialmente nuboso 762 m
Muy nuboso 1006 m
2018/10/23 23:00 LEMG 232300Z 00000KT 9999 SCT025 BKN033 20/18 Q1026 NOSIG
 
LEZL - Sevilla (civ/Mil, Spain
Distance from station: S 318km
Actualización: 24/10/2018 01:00
Despejado
Despejado
 Viento del ESE
Viento: ESE 7 km/h
Temperatura: 19°C
Rocío: 17°C
Humedad: 88%
Barómetro: 1024 hPa
Resumen: Despejado
Visibility: greater than 10 km
2018/10/23 23:00 LEZL 232300Z 12004KT CAVOK 19/17 Q1024 NOSIG
LEVT - Vitoria, Spain
Distance from station: NO 226km
Actualización: 24/10/2018 01:00
Parcialmente nuboso
Parcialmente nuboso
 Viento del calm
Viento: Calma
Temperatura: 7°C
Rocío: 6°C
Humedad: 93%
Barómetro: 1031 hPa
Clouds: Parcialmente nuboso
Visibility: 7 km
Cloud details: Parcialmente nuboso 518 m
2018/10/23 23:00 LEVT 232300Z 00000KT 7000 SCT017 07/06 Q1031
 
LEBB - Bilbao/Sondica, Spain
Distance from station: NNO 235km
Actualización: 24/10/2018 01:00
Parcialmente nuboso
Parcialmente nuboso
 Viento del varies
Viento: varies 4 km/h
Temperatura: 11°C
Rocío: 10°C
Humedad: 94%
Barómetro: 1031 hPa
Clouds: Parcialmente nuboso
Visibility: 10 km
Cloud details: Parcialmente nuboso 762 m
2018/10/23 23:00 LEBB 232300Z AUTO VRB02KT 9999 SCT025/// 11/10 Q1031
LESO - San Sebastian/Fu, Spain
Distance from station: N 231km
Actualización: 24/10/2018 01:00
Few Clouds
Few Clouds
 Viento del S
Viento: S 6 km/h
Temperatura: 11°C
Rocío: 10°C
Humedad: 94%
Barómetro: 1031 hPa
Clouds: Few Clouds
Visibility: 10 km
Cloud details: Few Clouds 1036 m
2018/10/23 23:00 LESO 232300Z AUTO 18003KT 150V210 9999 FEW034/// 11/10 Q1031
 
LEVD - Valladolid(Mil/C, Spain
Distance from station: ONO 239km
Actualización: 23/10/2018 21:30
NOT Current
Despejado
Despejado
 Viento del NE
Viento: NE 17 km/h
Temperatura: 12°C
Rocío: 3°C
Humedad: 54%
Barómetro: 1028 hPa
Resumen: Despejado
Visibility: greater than 10 km
2018/10/23 19:30 LEVD 231930Z 04009KT CAVOK 12/03 Q1028
LESA - Salamanca (civ/M, Spain
Distance from station: ONO 349km
Actualización: 24/10/2018 01:00
Despejado
Despejado
 Viento del NNE
Viento: NNE 6 km/h
Temperatura: 7°C
Rocío: 5°C
Humedad: 87%
Barómetro: 1029 hPa
Clouds: Despejado
Visibility: 10 km
2018/10/23 23:00 LESA 232300Z AUTO 03003KT 9999 NCD 07/05 Q1029
 
LEXJ - Santander/Paraya, Spain
Distance from station: NNO 247km
Actualización: 24/10/2018 01:00
Mist, Parcialmente nuboso
Mist, Parcialmente nuboso
 Viento del SO
Viento: SO 4 km/h
Temperatura: 10°C
Rocío: 10°C
Humedad: 100%
Barómetro: 1031 hPa
Resumen: Mist
Clouds: Parcialmente nuboso
Visibility: 4 km
2018/10/23 23:00 LEXJ 232300Z AUTO 23002KT 3600 BR NSC 10/10 Q1031
LEAS - Asturias/Aviles, Spain
Distance from station: NO 214km
Actualización: 24/10/2018 01:00
Despejado
Despejado
 Viento del E
Viento: E 11 km/h
Temperatura: 13°C
Rocío: 11°C
Humedad: 88%
Barómetro: 1031 hPa
Clouds: Despejado
Visibility: 10 km
2018/10/23 23:00 LEAS 232300Z AUTO 10006KT 070V150 9999 NCD 13/11 Q1031
 
LECO - La Coruna/Alvedr, Spain
Distance from station: ONO 222km
Actualización: 24/10/2018 01:00
Despejado
Despejado
 Viento del S
Viento: S 9 km/h
Temperatura: 12°C
Rocío: 11°C
Humedad: 94%
Barómetro: 1028 hPa
Resumen: Despejado
Visibility: greater than 10 km
2018/10/23 23:00 LECO 232300Z 17005KT CAVOK 12/11 Q1028
LEVX - Vigo/Peinador, Spain
Distance from station: O 214km
Actualización: 24/10/2018 01:00
Despejado
Despejado
 Viento del OSO
Viento: OSO 6 km/h
Temperatura: 16°C
Rocío: 11°C
Humedad: 72%
Barómetro: 1026 hPa
Resumen: Despejado
Visibility: greater than 10 km
2018/10/23 23:00 LEVX 232300Z 24003KT 210V290 CAVOK 16/11 Q1026 NOSIG